Time;durP1;ratioP1;P1;durP2;ratioP2;P2;SDS_P1;SDS_P2;PMS_P1;PMS_P2;Temp;Humidity;BMP_temperature;BMP_pressure;BME280_temperature;BME280_humidity;BME280_pressure;Samples;Min_cycle;Max_cycle;Signal;HPM_P1;HPM_P2
2022/04/02 00:00:16;;;;;;;2.88;1.10;;;;;;;19.15;38.25;101416.72;5052847;28;20033;-56
2022/04/02 00:02:42;;;;;;;2.47;1.05;;;;;;;19.15;38.36;101408.78;5052425;28;20047;-57
2022/04/02 00:05:09;;;;;;;1.95;0.90;;;;;;;19.14;38.45;101416.81;5052758;28;20782;-57
2022/04/02 00:07:35;;;;;;;2.15;0.85;;;;;;;19.12;38.21;101413.44;5052511;28;20029;-58
2022/04/02 00:10:00;;;;;;;2.80;1.10;;;;;;;19.10;38.11;101418.84;5052023;28;20033;-58
2022/04/02 00:12:25;;;;;;;2.03;1.00;;;;;;;19.08;38.23;101426.03;5052628;28;20055;-58
2022/04/02 00:14:53;;;;;;;2.20;0.90;;;;;;;19.07;38.21;101420.88;5052332;28;20029;-57
2022/04/02 00:17:19;;;;;;;2.50;1.00;;;;;;;19.07;38.15;101424.34;5052168;28;20025;-58
2022/04/02 00:19:44;;;;;;;1.70;0.70;;;;;;;19.03;38.09;101422.94;5052630;28;20108;-58
2022/04/02 00:22:10;;;;;;;2.28;0.90;;;;;;;19.02;38.22;101422.06;5052375;28;20021;-58
2022/04/02 00:24:35;;;;;;;2.63;1.00;;;;;;;19.00;37.85;101431.06;5052208;28;20040;-58
2022/04/02 00:27:00;;;;;;;1.83;0.90;;;;;;;18.97;38.00;101421.56;5052410;28;20270;-58
2022/04/02 00:29:25;;;;;;;2.50;1.00;;;;;;;18.98;38.12;101422.44;5052375;28;20494;-57
2022/04/02 00:31:51;;;;;;;2.40;0.90;;;;;;;18.96;38.26;101421.69;5051690;28;20710;-58
2022/04/02 00:34:16;;;;;;;2.63;1.00;;;;;;;18.95;37.97;101420.03;5052403;28;20739;-58
2022/04/02 00:36:41;;;;;;;4.23;1.20;;;;;;;18.96;38.46;101425.19;5052510;28;20029;-58
2022/04/02 00:39:08;;;;;;;2.15;1.00;;;;;;;18.96;38.35;101427.84;5051859;28;20656;-57
2022/04/02 00:41:36;;;;;;;2.22;1.00;;;;;;;19.01;37.96;101414.28;5052607;28;20021;-57
2022/04/02 00:44:08;;;;;;;2.13;0.90;;;;;;;19.05;38.00;101415.72;5051942;28;20469;-57
2022/04/02 00:46:33;;;;;;;3.17;0.90;;;;;;;19.08;37.81;101412.84;5051867;28;20108;-57
2022/04/02 00:48:58;;;;;;;2.65;0.98;;;;;;;19.12;37.77;101424.00;5052076;28;20602;-57
2022/04/02 00:51:24;;;;;;;2.33;0.98;;;;;;;19.14;37.62;101417.66;5052388;28;20471;-57
2022/04/02 00:53:51;;;;;;;3.33;1.00;;;;;;;19.15;37.64;101416.72;5051707;28;20028;-57
2022/04/02 00:56:18;;;;;;;2.33;0.80;;;;;;;19.17;37.58;101408.66;5052523;28;20124;-57
2022/04/02 00:58:44;;;;;;;2.30;1.00;;;;;;;19.20;37.78;101421.63;5052382;28;20021;-59
2022/04/02 01:01:09;;;;;;;1.60;0.70;;;;;;;19.19;37.63;101422.59;5053431;28;20044;-57
2022/04/02 01:03:35;;;;;;;2.33;1.00;;;;;;;19.19;37.72;101418.16;5056295;28;20056;-56
2022/04/02 01:06:01;;;;;;;2.08;1.00;;;;;;;19.20;37.60;101424.25;5055586;28;20025;-57
2022/04/02 01:08:26;;;;;;;2.90;0.95;;;;;;;19.20;37.68;101418.97;5056395;28;20036;-56
2022/04/02 01:10:55;;;;;;;1.77;0.80;;;;;;;19.20;37.66;101411.03;5055534;28;20070;-57
2022/04/02 01:13:22;;;;;;;2.92;0.98;;;;;;;19.18;37.28;101419.13;5055631;28;20040;-57
2022/04/02 01:15:47;;;;;;;2.30;1.00;;;;;;;19.18;37.45;101415.63;5055995;28;20039;-58
2022/04/02 01:18:13;;;;;;;1.83;0.85;;;;;;;19.16;37.24;101415.72;5055732;28;20103;-57
2022/04/02 01:20:39;;;;;;;2.47;0.93;;;;;;;19.13;37.48;101421.25;5055479;28;20133;-58
2022/04/02 01:23:08;;;;;;;2.55;1.00;;;;;;;19.12;37.53;101424.00;5055863;28;20032;-58
2022/04/02 01:25:34;;;;;;;1.63;0.80;;;;;;;19.11;37.37;101420.53;5055799;28;20025;-57
2022/04/02 01:28:00;;;;;;;3.13;1.10;;;;;;;19.10;37.30;101418.84;5055088;28;20440;-57
2022/04/02 01:30:27;;;;;;;3.03;1.00;;;;;;;19.09;37.46;101422.47;5055764;28;20025;-57
2022/04/02 01:32:53;;;;;;;2.00;0.90;;;;;;;19.09;37.33;101425.09;5055253;28;20033;-57
2022/04/02 01:35:21;;;;;;;2.17;0.90;;;;;;;19.11;37.50;101420.53;5055093;28;20169;-57
2022/04/02 01:37:47;;;;;;;2.55;1.10;;;;;;;19.13;37.25;101421.25;5055574;28;20040;-56
2022/04/02 01:40:25;;;;;;;2.28;0.82;;;;;;;19.14;37.31;101420.31;5055308;28;20151;-57
2022/04/02 01:42:50;;;;;;;1.85;0.82;;;;;;;19.16;37.38;101420.19;5052142;28;20071;-57
2022/04/02 01:45:16;;;;;;;2.85;0.98;;;;;;;19.16;37.34;101413.09;5055444;28;20066;-57
2022/04/02 01:47:41;;;;;;;2.08;0.85;;;;;;;19.18;37.11;101415.63;5055681;28;20032;-58
2022/04/02 01:50:08;;;;;;;1.98;1.00;;;;;;;19.18;36.93;101415.63;5054541;28;20024;-58
2022/04/02 01:52:33;;;;;;;1.75;0.90;;;;;;;19.18;36.78;101419.13;5055177;28;20488;-58
2022/04/02 01:54:58;;;;;;;1.98;0.93;;;;;;;19.18;36.78;101421.75;5055138;28;20068;-57
2022/04/02 01:57:23;;;;;;;1.95;0.93;;;;;;;19.18;37.04;101429.69;5054666;28;20052;-57
2022/04/02 01:59:50;;;;;;;2.40;1.03;;;;;;;19.16;36.56;101422.81;5054847;28;20377;-58
2022/04/02 02:02:16;;;;;;;2.08;0.90;;;;;;;19.17;36.95;101430.63;5054466;28;20754;-58
2022/04/02 02:04:42;;;;;;;2.22;0.88;;;;;;;19.17;36.88;101422.72;5055255;28;20091;-58
2022/04/02 02:07:07;;;;;;;2.00;0.90;;;;;;;19.19;36.80;101434.00;5054648;28;20356;-58
2022/04/02 02:09:33;;;;;;;1.63;0.80;;;;;;;19.21;36.64;101428.59;5054443;28;20039;-58
2022/04/02 02:12:00;;;;;;;2.13;0.93;;;;;;;19.21;36.49;101432.06;5053595;28;20049;-58
2022/04/02 02:14:26;;;;;;;1.95;0.93;;;;;;;19.22;36.66;101430.28;5054689;28;20032;-58
2022/04/02 02:16:51;;;;;;;1.67;0.80;;;;;;;19.23;36.65;101433.75;5054299;28;20127;-57
2022/04/02 02:19:17;;;;;;;2.15;0.95;;;;;;;19.23;36.77;101431.94;5054898;28;20049;-58
2022/04/02 02:21:42;;;;;;;2.20;0.90;;;;;;;19.24;36.37;101435.47;5054580;28;20518;-56
2022/04/02 02:24:08;;;;;;;2.63;0.90;;;;;;;19.24;36.22;101438.94;5054108;28;20036;-56
2022/04/02 02:26:34;;;;;;;2.42;0.90;;;;;;;19.23;36.32;101434.59;5054775;28;20357;-57
2022/04/02 02:28:59;;;;;;;2.38;1.10;;;;;;;19.22;36.81;101432.94;5054339;28;20032;-57
2022/04/02 02:31:25;;;;;;;1.67;0.90;;;;;;;19.24;36.65;101438.94;5054321;28;20021;-57
2022/04/02 02:36:40;;;;;;;1.65;0.85;;;;;;;19.27;36.58;101448.44;5055052;28;20550;-57
2022/04/02 02:39:05;;;;;;;2.05;0.95;;;;;;;19.27;36.52;101445.78;5053646;28;20037;-57
2022/04/02 02:41:30;;;;;;;1.67;0.90;;;;;;;19.27;36.42;101443.16;5054596;28;20369;-57
2022/04/02 02:43:55;;;;;;;2.67;1.00;;;;;;;19.28;36.47;101445.69;5054442;28;20266;-57
2022/04/02 02:46:21;;;;;;;2.15;0.90;;;;;;;19.29;36.65;101449.97;5053762;28;20029;-57
2022/04/02 02:48:49;;;;;;;1.93;1.00;;;;;;;19.29;36.41;101442.06;5053716;28;20060;-56
2022/04/02 02:51:14;;;;;;;1.60;0.80;;;;;;;19.28;36.64;101450.09;5054460;28;20274;-56
2022/04/02 02:53:40;;;;;;;2.70;1.00;;;;;;;19.29;36.35;101457.06;5053643;28;20495;-57
2022/04/02 02:56:06;;;;;;;2.72;0.90;;;;;;;19.27;36.33;101445.78;5054008;28;20078;-57
2022/04/02 02:58:31;;;;;;;2.50;0.90;;;;;;;19.27;36.69;101453.72;5053865;28;20025;-57
2022/04/02 03:00:57;;;;;;;1.80;0.80;;;;;;;19.28;36.54;101453.59;5054116;28;20017;-58
2022/04/02 03:03:22;;;;;;;1.70;0.88;;;;;;;19.29;36.50;101457.06;5054218;28;20029;-56
2022/04/02 03:05:48;;;;;;;1.35;0.70;;;;;;;19.30;36.56;101456.97;5053746;28;20021;-58
2022/04/02 03:08:15;;;;;;;2.10;0.90;;;;;;;19.30;36.48;101458.78;5054083;28;20029;-57
2022/04/02 03:10:41;;;;;;;1.58;0.77;;;;;;;19.31;36.52;101455.16;5053907;28;20041;-58
2022/04/02 03:13:06;;;;;;;2.22;0.80;;;;;;;19.31;36.60;101453.38;5053374;28;20546;-58
2022/04/02 03:15:32;;;;;;;2.00;0.80;;;;;;;19.30;36.49;101449.03;5054143;28;20028;-56
2022/04/02 03:18:04;;;;;;;1.85;0.88;;;;;;;19.32;36.04;101456.84;5053224;28;20274;-57
2022/04/02 03:20:29;;;;;;;2.22;0.88;;;;;;;19.32;36.37;101462.13;5053186;28;20041;-57
2022/04/02 03:22:54;;;;;;;1.58;0.80;;;;;;;19.31;36.18;101455.16;5053200;28;20440;-57
2022/04/02 03:25:22;;;;;;;2.13;0.80;;;;;;;19.30;36.16;101459.59;5053409;28;20040;-57
2022/04/02 03:27:48;;;;;;;2.15;0.90;;;;;;;19.30;36.19;101459.59;5053209;28;20282;-58
2022/04/02 03:30:17;;;;;;;1.42;0.75;;;;;;;19.31;36.15;101456.00;5053471;28;20032;-58
2022/04/02 03:32:46;;;;;;;2.20;0.90;;;;;;;19.31;36.12;101457.78;5053559;28;20031;-58
2022/04/02 03:35:14;;;;;;;1.48;0.80;;;;;;;19.32;36.13;101462.13;5052587;28;20119;-58
2022/04/02 03:37:41;;;;;;;2.40;0.85;;;;;;;19.32;35.99;101455.03;5053203;28;20100;-57
2022/04/02 03:40:09;;;;;;;1.77;0.80;;;;;;;19.31;36.13;101453.38;5053288;28;20020;-58
2022/04/02 03:42:37;;;;;;;1.48;0.77;;;;;;;19.30;36.01;101454.31;5052611;28;20060;-58
2022/04/02 03:45:05;;;;;;;3.58;0.90;;;;;;;19.31;35.84;101452.50;5052894;28;20199;-57
2022/04/02 03:47:31;;;;;;;2.17;0.90;;;;;;;19.32;35.98;101459.50;5053113;28;20028;-57
2022/04/02 03:50:02;;;;;;;2.05;0.90;;;;;;;19.31;36.14;101461.31;5052155;28;20073;-56
2022/04/02 03:52:29;;;;;;;2.58;0.90;;;;;;;19.31;36.02;101460.44;5053256;28;20088;-56
2022/04/02 03:54:54;;;;;;;1.92;0.93;;;;;;;19.30;36.12;101461.41;5052416;28;20736;-56
2022/04/02 03:57:19;;;;;;;1.30;0.77;;;;;;;19.34;36.16;101470.78;5052990;28;20033;-56
2022/04/02 03:59:46;;;;;;;2.00;0.80;;;;;;;19.34;35.80;101473.41;5052967;28;20066;-57
2022/04/02 04:02:12;;;;;;;2.38;0.80;;;;;;;19.35;36.09;101475.13;5052154;28;20404;-57
2022/04/02 04:04:38;;;;;;;1.60;0.80;;;;;;;19.34;36.14;101470.78;5052911;28;20048;-57
2022/04/02 04:07:04;;;;;;;2.78;1.00;;;;;;;19.35;36.03;101475.94;5052617;28;20463;-57
2022/04/02 04:09:29;;;;;;;2.03;0.90;;;;;;;19.33;36.05;101480.50;5052491;28;20029;-56
2022/04/02 04:11:55;;;;;;;1.35;0.68;;;;;;;19.32;35.75;101478.81;5052248;28;20083;-57
2022/04/02 04:14:22;;;;;;;2.17;1.00;;;;;;;19.33;36.41;101480.50;5052684;28;20035;-57
2022/04/02 04:16:48;;;;;;;3.05;1.10;;;;;;;19.34;36.44;101486.63;5052372;28;20021;-57
2022/04/02 04:19:16;;;;;;;2.17;0.80;;;;;;;19.34;36.32;101482.22;5052312;28;20144;-58
2022/04/02 04:21:43;;;;;;;2.58;0.90;;;;;;;19.36;36.03;101490.03;5052857;28;20035;-56
2022/04/02 04:24:08;;;;;;;1.75;0.88;;;;;;;19.36;35.85;101487.38;5052083;28;20456;-57
2022/04/02 04:26:34;;;;;;;2.55;0.90;;;;;;;19.35;36.17;101486.50;5052589;28;20036;-56
2022/04/02 04:29:00;;;;;;;1.98;0.90;;;;;;;19.34;35.96;101490.13;5052594;28;20445;-56
2022/04/02 04:31:25;;;;;;;2.20;0.90;;;;;;;19.36;35.84;101492.66;5052155;28;20507;-56
2022/04/02 04:33:51;;;;;;;2.60;0.93;;;;;;;19.34;35.95;101487.50;5051934;28;20116;-58
2022/04/02 04:36:20;;;;;;;2.28;0.90;;;;;;;19.34;35.91;101491.91;5052176;28;20052;-57
2022/04/02 04:38:46;;;;;;;2.53;1.10;;;;;;;19.32;36.20;101485.91;5051920;28;20477;-57
2022/04/02 04:41:13;;;;;;;2.22;0.80;;;;;;;19.32;36.10;101491.19;5052095;28;20032;-56
2022/04/02 04:43:41;;;;;;;2.05;0.80;;;;;;;19.33;36.55;101496.38;5052635;28;20113;-58
2022/04/02 04:46:07;;;;;;;3.60;0.90;;;;;;;19.34;36.49;101500.72;5051635;28;20029;-58
2022/04/02 04:48:32;;;;;;;3.42;1.08;;;;;;;19.36;35.96;101511.16;5052445;28;20036;-57
2022/04/02 04:51:00;;;;;;;1.92;0.80;;;;;;;19.35;35.86;101510.31;5051485;28;20037;-58
2022/04/02 04:53:26;;;;;;;2.60;0.90;;;;;;;19.35;35.70;101520.03;5052535;28;20112;-58
2022/04/02 04:55:51;;;;;;;2.17;0.93;;;;;;;19.34;35.75;101524.50;5051849;28;20143;-57
2022/04/02 04:58:16;;;;;;;2.03;0.90;;;;;;;19.34;35.89;101521.00;5051745;28;20392;-58
2022/04/02 05:00:41;;;;;;;2.00;0.90;;;;;;;19.32;35.92;101525.56;5052402;28;20029;-57
2022/04/02 05:03:08;;;;;;;1.95;0.90;;;;;;;19.31;35.79;101527.38;5051661;28;20282;-58
2022/04/02 05:05:35;;;;;;;2.60;0.70;;;;;;;19.32;36.08;101536.13;5052019;28;20099;-58
2022/04/02 05:08:01;;;;;;;1.63;0.80;;;;;;;19.34;36.40;101539.50;5052042;28;20546;-58
2022/04/02 05:10:27;;;;;;;1.55;0.80;;;;;;;19.35;36.63;101536.72;5052119;28;20033;-57
2022/04/02 05:12:55;;;;;;;1.95;0.80;;;;;;;19.37;37.12;101550.66;5051149;28;20083;-58
2022/04/02 05:15:21;;;;;;;2.22;0.88;;;;;;;19.39;37.42;101542.63;5051983;28;20029;-58
2022/04/02 05:17:46;;;;;;;1.77;0.93;;;;;;;19.42;37.09;101544.19;5052400;28;20017;-58
2022/04/02 05:20:14;;;;;;;1.70;0.70;;;;;;;19.44;37.38;101544.91;5051463;28;20056;-58
2022/04/02 05:22:40;;;;;;;2.15;0.80;;;;;;;19.46;38.09;101550.94;5051923;28;20025;-57
2022/04/02 05:25:08;;;;;;;1.92;0.70;;;;;;;19.47;38.25;101550.84;5051776;28;20036;-57
2022/04/02 05:27:43;;;;;;;1.73;0.70;;;;;;;19.50;38.25;101560.31;5051544;28;20064;-57
2022/04/02 05:30:11;;;;;;;1.85;0.80;;;;;;;19.51;38.06;101564.66;5051647;28;20477;-58
2022/04/02 05:32:36;;;;;;;2.28;0.80;;;;;;;19.53;37.92;101565.38;5052222;28;20029;-58
2022/04/02 05:35:02;;;;;;;1.50;0.80;;;;;;;19.54;37.92;101564.44;5051247;28;20535;-58
2022/04/02 05:37:28;;;;;;;1.98;0.95;;;;;;;19.56;37.85;101575.72;5051653;28;20036;-57
2022/04/02 05:39:53;;;;;;;1.10;0.70;;;;;;;19.58;37.71;101579.94;5051656;28;20025;-58
2022/04/02 05:42:21;;;;;;;1.97;0.87;;;;;;;19.58;37.60;101577.31;5051272;28;20086;-58
2022/04/02 05:44:46;;;;;;;1.38;0.70;;;;;;;19.61;38.07;101580.66;5051701;28;20278;-58
2022/04/02 05:47:12;;;;;;;1.17;0.75;;;;;;;19.62;38.39;101583.19;5051603;28;20048;-58
2022/04/02 05:49:37;;;;;;;1.80;0.80;;;;;;;19.63;38.42;101587.53;5055494;28;20025;-57
2022/04/02 05:52:07;;;;;;;2.42;0.82;;;;;;;19.64;38.48;101591.84;5054769;28;20084;-58
2022/04/02 05:54:34;;;;;;;2.03;0.70;;;;;;;19.65;38.58;101590.91;5054761;28;20028;-57
2022/04/02 05:57:00;;;;;;;2.03;0.80;;;;;;;19.67;38.20;101588.13;5054814;28;20490;-57
2022/04/02 05:59:25;;;;;;;1.33;0.70;;;;;;;19.69;38.18;101600.28;5054982;28;20025;-57
2022/04/02 06:01:50;;;;;;;1.73;0.70;;;;;;;19.70;38.28;101603.75;5054459;28;20017;-56
2022/04/02 06:04:23;;;;;;;1.65;0.70;;;;;;;19.72;38.00;101604.47;5055283;28;20031;-57
2022/04/02 06:06:48;;;;;;;1.55;0.70;;;;;;;19.72;38.44;101607.13;5054770;28;20040;-57
2022/04/02 06:09:13;;;;;;;1.80;0.70;;;;;;;19.71;36.49;101608.94;5054440;28;20361;-57
2022/04/02 06:11:38;;;;;;;1.37;0.70;;;;;;;19.69;37.11;101610.00;5054467;28;20045;-58
2022/04/02 06:14:04;;;;;;;3.03;0.90;;;;;;;19.67;37.65;101612.75;5054570;28;20705;-58
2022/04/02 06:16:29;;;;;;;1.63;0.80;;;;;;;19.68;38.02;101613.63;5054329;28;20032;-58
2022/04/02 06:18:54;;;;;;;1.83;0.80;;;;;;;19.70;38.24;101619.63;5054486;28;20064;-57
2022/04/02 06:21:20;;;;;;;1.83;0.80;;;;;;;19.70;38.39;101623.09;5054980;28;20675;-57
2022/04/02 06:23:45;;;;;;;1.23;0.70;;;;;;;19.72;38.08;101617.72;5054316;28;20321;-56
2022/04/02 06:26:11;;;;;;;2.33;1.17;;;;;;;19.74;38.34;101621.94;5054198;28;20032;-57
2022/04/02 06:28:44;;;;;;;2.25;0.90;;;;;;;19.70;34.48;101617.81;5054903;28;20036;-57
2022/04/02 06:31:10;;;;;;;2.58;0.95;;;;;;;19.64;34.75;101623.56;5053957;28;20028;-57
2022/04/02 06:33:35;;;;;;;2.33;0.90;;;;;;;19.63;37.05;101629.84;5054367;28;20388;-57
2022/04/02 06:36:00;;;;;;;1.70;0.80;;;;;;;19.64;37.57;101636.78;5054620;28;20107;-59
2022/04/02 06:38:26;;;;;;;2.85;0.80;;;;;;;19.70;37.58;101640.78;5055398;28;20053;-58
2022/04/02 06:40:52;;;;;;;2.70;1.10;;;;;;;19.81;37.23;101638.19;5056438;28;20385;-59
2022/04/02 06:43:20;;;;;;;2.08;0.90;;;;;;;19.94;37.20;101643.41;5055809;28;20025;-59
2022/04/02 06:45:45;;;;;;;2.38;0.88;;;;;;;20.07;37.78;101652.06;5054472;28;20029;-58
2022/04/02 06:48:13;;;;;;;2.58;1.00;;;;;;;20.11;34.49;101644.75;5054720;28;20116;-56
2022/04/02 06:50:39;;;;;;;2.40;0.90;;;;;;;20.15;36.59;101655.94;5054312;28;20028;-56
2022/04/02 06:53:05;;;;;;;3.15;0.82;;;;;;;20.14;37.31;101656.88;5053837;28;20464;-58
2022/04/02 06:55:32;;;;;;;2.03;0.90;;;;;;;20.15;37.55;101667.34;5053877;28;20124;-58
2022/04/02 06:57:58;;;;;;;2.03;0.77;;;;;;;20.15;37.59;101663.88;5053075;28;20404;-57
2022/04/02 07:00:23;;;;;;;2.50;0.90;;;;;;;20.18;37.61;101668.94;5054314;28;20060;-56
2022/04/02 07:02:49;;;;;;;1.73;0.60;;;;;;;20.17;37.83;101672.53;5053625;28;20049;-57
2022/04/02 07:05:15;;;;;;;1.92;0.70;;;;;;;20.16;37.74;101669.06;5053368;28;20036;-56
2022/04/02 07:07:41;;;;;;;2.58;1.00;;;;;;;20.13;38.02;101669.28;5053770;28;20021;-57
2022/04/02 07:10:07;;;;;;;2.53;0.73;;;;;;;20.19;38.25;101682.06;5053588;28;20334;-55
2022/04/02 07:12:36;;;;;;;2.28;0.73;;;;;;;20.21;37.88;101685.41;5052869;28;20118;-56
2022/04/02 07:15:04;;;;;;;2.53;0.98;;;;;;;20.24;38.09;101682.53;5053200;28;20396;-57
2022/04/02 07:17:29;;;;;;;2.70;1.00;;;;;;;20.26;38.13;101690.34;5053642;28;20028;-53
2022/04/02 07:19:57;;;;;;;2.70;0.90;;;;;;;20.27;38.14;101690.25;5052852;28;20104;-55
2022/04/02 07:22:23;;;;;;;2.40;0.70;;;;;;;20.28;38.26;101693.72;5053302;28;20465;-56
2022/04/02 07:24:50;;;;;;;3.63;0.93;;;;;;;20.28;38.29;101689.28;5053472;28;20028;-56
2022/04/02 07:27:17;;;;;;;1.05;0.65;;;;;;;20.27;38.07;101692.88;5053101;28;20087;-56
2022/04/02 07:29:57;;;;;;;2.60;0.80;;;;;;;20.29;38.46;101704.19;5053189;28;20461;-57
2022/04/02 07:32:23;;;;;;;3.90;0.98;;;;;;;20.28;38.36;101702.53;5053251;28;20511;-54
2022/04/02 07:34:48;;;;;;;2.03;0.88;;;;;;;20.29;38.41;101703.34;5052676;28;20029;-57
2022/04/02 07:37:51;;;;;;;2.13;0.90;;;;;;;20.29;38.41;101703.34;5053393;28;20032;-56
2022/04/02 07:40:23;;;;;;;1.52;0.90;;;;;;;20.30;38.53;101705.88;5052884;28;20393;-54
2022/04/02 07:43:01;;;;;;;2.05;0.77;;;;;;;20.32;38.80;101718.19;5052765;28;20020;-56
2022/04/02 07:45:32;;;;;;;2.42;1.00;;;;;;;20.30;38.67;101721.78;5053903;28;20029;-58
2022/04/02 07:47:58;;;;;;;1.88;0.70;;;;;;;20.38;38.53;101723.00;5052822;28;20033;-59
2022/04/02 07:50:26;;;;;;;2.55;0.93;;;;;;;20.45;38.46;101732.97;5053457;28;20074;-59
2022/04/02 07:52:56;;;;;;;1.45;0.70;;;;;;;20.53;37.82;101729.72;5053038;28;20128;-59
2022/04/02 07:55:22;;;;;;;2.25;0.80;;;;;;;20.54;36.91;101730.59;5052850;28;20017;-58
2022/04/02 07:57:50;;;;;;;2.25;0.73;;;;;;;20.59;37.60;101731.06;5052963;28;20107;-59
2022/04/02 08:00:26;;;;;;;1.42;0.70;;;;;;;20.65;37.82;101728.81;5053058;28;20510;-58
2022/04/02 08:02:56;;;;;;;2.38;0.93;;;;;;;20.71;37.90;101731.94;5052408;28;20032;-58
2022/04/02 08:05:25;;;;;;;3.40;0.88;;;;;;;20.75;38.01;101731.59;5052828;28;20361;-57
2022/04/02 08:07:54;;;;;;;1.73;0.90;;;;;;;20.82;38.16;101734.59;5052260;28;20035;-59
2022/04/02 08:10:23;;;;;;;1.95;0.85;;;;;;;20.86;38.39;101733.41;5052198;28;20057;-58
2022/04/02 08:12:48;;;;;;;2.85;0.73;;;;;;;20.89;38.04;101733.16;5052349;28;20052;-59
2022/04/02 08:15:17;;;;;;;1.55;0.73;;;;;;;20.93;38.06;101737.22;5052570;28;20471;-59
2022/04/02 08:17:45;;;;;;;2.33;0.90;;;;;;;20.95;37.88;101737.09;5052892;28;20087;-59
2022/04/02 08:20:11;;;;;;;2.20;0.70;;;;;;;20.93;37.45;101734.56;5052437;28;20021;-60
2022/04/02 08:22:36;;;;;;;2.83;1.00;;;;;;;20.91;37.19;101743.63;5052063;28;20049;-58
2022/04/02 08:25:03;;;;;;;2.03;0.80;;;;;;;20.90;37.21;101736.63;5051887;28;20067;-58
2022/04/02 08:27:45;;;;;;;2.05;0.70;;;;;;;20.93;37.30;101744.34;5053126;28;20060;-59
2022/04/02 08:30:16;;;;;;;1.80;0.80;;;;;;;20.96;37.34;101746.75;5051867;28;20079;-58
2022/04/02 08:32:58;;;;;;;2.78;0.90;;;;;;;20.96;37.43;101746.75;5052348;28;20460;-58
2022/04/02 08:35:30;;;;;;;2.70;0.93;;;;;;;20.99;37.41;101751.81;5052537;28;20033;-58
2022/04/02 08:38:12;;;;;;;2.03;0.80;;;;;;;20.97;37.20;101757.22;5051900;28;20025;-58
2022/04/02 08:40:40;;;;;;;2.20;0.82;;;;;;;20.97;37.34;101757.22;5052378;28;20100;-59
2022/04/02 08:43:28;;;;;;;2.25;0.73;;;;;;;20.97;37.39;101754.59;5051698;28;20028;-58
2022/04/02 08:46:05;;;;;;;5.05;0.98;;;;;;;20.97;37.46;101756.41;5051913;28;20114;-59
2022/04/02 08:48:35;;;;;;;1.98;0.80;;;;;;;20.98;37.24;101769.53;5052619;28;20026;-59
2022/04/02 08:51:39;;;;;;;2.88;0.80;;;;;;;20.97;36.83;101769.66;5052060;28;20060;-59
2022/04/02 08:54:08;;;;;;;3.33;0.88;;;;;;;20.94;37.22;101767.25;5051929;28;20040;-58
2022/04/02 08:56:43;;;;;;;2.63;0.90;;;;;;;20.93;37.20;101771.66;5052537;28;20062;-57
2022/04/02 08:59:08;;;;;;;2.28;1.08;;;;;;;20.94;37.18;101776.03;5051547;28;20073;-57
2022/04/02 09:01:40;;;;;;;2.17;0.88;;;;;;;20.94;37.19;101783.97;5052026;28;20032;-57
2022/04/02 09:04:24;;;;;;;2.05;0.88;;;;;;;20.95;37.41;101793.63;5050916;28;20500;-58
2022/04/02 09:07:12;;;;;;;2.13;0.90;;;;;;;20.94;37.58;101786.63;5052219;28;20029;-58
2022/04/02 09:10:13;;;;;;;2.45;1.00;;;;;;;20.94;37.41;101791.09;5041194;28;20108;-58
2022/04/02 09:12:55;;;;;;;2.25;0.80;;;;;;;20.94;37.58;101796.38;5051413;28;20124;-58
2022/04/02 09:15:52;;;;;;;3.30;0.80;;;;;;;20.94;37.43;101799.88;5052425;28;20116;-59
2022/04/02 09:18:58;;;;;;;2.28;1.00;;;;;;;20.90;37.47;101795.75;5051923;28;20021;-58
2022/04/02 09:21:34;;;;;;;2.92;1.00;;;;;;;20.84;37.37;101797.09;5045430;28;20043;-58
2022/04/02 09:24:45;;;;;;;2.70;0.90;;;;;;;20.83;37.27;101807.81;5055963;28;20053;-58
2022/04/02 09:27:43;;;;;;;3.47;1.17;;;;;;;20.74;36.05;101812.00;5054963;28;20061;-60
2022/04/02 09:30:46;;;;;;;3.75;1.20;;;;;;;20.68;36.37;101809.84;5054130;28;20041;-58
2022/04/02 09:33:29;;;;;;;3.25;0.98;;;;;;;20.63;37.11;101804.00;5055089;28;20033;-58
2022/04/02 09:36:29;;;;;;;2.15;0.82;;;;;;;20.63;37.62;101811.97;5055302;28;20146;-58
2022/04/02 09:39:13;;;;;;;2.58;0.98;;;;;;;20.60;37.47;101817.50;5055112;28;20037;-59
2022/04/02 09:41:51;;;;;;;1.65;0.85;;;;;;;20.58;37.74;101814.97;5055487;28;20369;-58
2022/04/02 09:44:34;;;;;;;3.17;1.10;;;;;;;20.56;37.62;101819.53;5055482;28;20039;-58
2022/04/02 09:47:13;;;;;;;3.67;1.08;;;;;;;20.58;37.52;101819.41;5054838;28;20479;-57
2022/04/02 09:50:01;;;;;;;3.08;0.90;;;;;;;20.56;37.63;101822.19;5055389;28;20074;-58
2022/04/02 09:52:27;;;;;;;3.00;1.00;;;;;;;20.55;37.44;101817.00;5055290;28;20119;-58
2022/04/02 09:55:06;;;;;;;3.22;0.98;;;;;;;20.57;37.76;101817.72;5054445;28;20056;-58
2022/04/02 09:57:50;;;;;;;2.83;1.00;;;;;;;20.57;37.66;101825.66;5055313;28;20033;-58
2022/04/02 10:00:22;;;;;;;2.25;0.80;;;;;;;20.53;37.51;101817.13;5055268;28;20074;-58
2022/04/02 10:03:05;;;;;;;3.70;1.10;;;;;;;20.53;37.09;101818.94;5055191;28;20028;-58
2022/04/02 10:05:42;;;;;;;3.43;1.20;;;;;;;20.48;37.23;101811.34;5055689;28;20025;-58
2022/04/02 10:08:27;;;;;;;2.33;0.98;;;;;;;20.48;37.96;101819.28;5055001;28;20048;-58
2022/04/02 10:10:56;;;;;;;3.42;1.10;;;;;;;20.50;36.47;101825.28;5055056;28;20025;-58
2022/04/02 10:13:25;;;;;;;3.65;1.05;;;;;;;20.49;37.57;101815.69;5055246;28;20029;-59
2022/04/02 10:15:52;;;;;;;2.55;1.00;;;;;;;20.50;37.96;101808.56;5054551;28;20437;-58
2022/04/02 10:18:20;;;;;;;2.60;0.93;;;;;;;20.51;37.89;101813.75;5055116;28;20037;-58
2022/04/02 10:20:48;;;;;;;2.15;1.08;;;;;;;20.54;37.81;101812.69;5055325;28;20031;-57
2022/04/02 10:23:22;;;;;;;2.47;1.10;;;;;;;20.56;38.07;101794.88;5054504;28;20021;-58
2022/04/02 10:26:18;;;;;;;3.88;1.20;;;;;;;20.70;38.56;101793.84;5054902;28;20025;-59
2022/04/02 10:28:53;;;;;;;2.50;1.05;;;;;;;20.75;38.51;101796.97;5054654;28;20036;-58
2022/04/02 10:31:37;;;;;;;2.65;1.05;;;;;;;20.75;38.44;101781.09;5054570;28;20029;-55
2022/04/02 10:34:08;;;;;;;2.08;0.88;;;;;;;20.79;38.31;101803.69;5053424;28;20487;-57
2022/04/02 10:36:39;;;;;;;4.15;1.10;;;;;;;20.80;38.67;101797.44;5054253;28;20029;-57
2022/04/02 10:39:07;;;;;;;2.67;0.90;;;;;;;20.81;38.40;101801.81;5054035;28;20021;-54
2022/04/02 10:41:36;;;;;;;3.35;1.02;;;;;;;20.78;36.24;101800.22;5054529;28;20025;-56
2022/04/02 10:44:35;;;;;;;2.40;1.05;;;;;;;20.78;37.75;101815.28;5053660;28;20081;-58
2022/04/02 10:47:08;;;;;;;2.47;1.00;;;;;;;20.78;38.03;101804.69;5054056;28;20039;-57
2022/04/02 10:49:37;;;;;;;4.40;1.10;;;;;;;20.78;37.45;101810.81;5054385;28;20028;-58
2022/04/02 10:52:03;;;;;;;2.67;1.15;;;;;;;20.75;37.50;101803.09;5054006;28;20401;-58
2022/04/02 10:54:29;;;;;;;3.95;1.30;;;;;;;20.73;37.27;101806.81;5053894;28;20017;-58
2022/04/02 10:56:55;;;;;;;2.30;1.10;;;;;;;20.68;37.40;101809.00;5053279;28;20056;-58
2022/04/02 10:59:30;;;;;;;4.72;1.00;;;;;;;20.63;37.66;101801.38;5053717;28;20021;-57
2022/04/02 11:02:01;;;;;;;1.83;0.82;;;;;;;20.61;37.99;101798.00;5053990;28;20018;-57
2022/04/02 11:04:43;;;;;;;3.60;1.00;;;;;;;20.63;38.33;101801.38;5053719;28;20104;-57
2022/04/02 11:07:08;;;;;;;2.42;1.10;;;;;;;20.63;37.90;101802.22;5053656;28;20115;-59
2022/04/02 11:09:36;;;;;;;2.47;1.00;;;;;;;20.67;37.94;101807.31;5053889;28;20057;-57
2022/04/02 11:12:15;;;;;;;4.18;0.90;;;;;;;20.69;38.03;101813.34;5052961;28;20097;-60
2022/04/02 11:14:45;;;;;;;2.40;0.85;;;;;;;20.69;37.98;101806.22;5053847;28;20044;-59
2022/04/02 11:17:32;;;;;;;2.30;1.00;;;;;;;20.71;37.83;101811.41;5053499;28;20025;-59
2022/04/02 11:20:16;;;;;;;3.67;1.00;;;;;;;20.72;37.99;101806.00;5052895;28;20109;-58
2022/04/02 11:22:50;;;;;;;2.78;0.90;;;;;;;20.71;37.79;101801.69;5053745;28;20459;-58
2022/04/02 11:25:28;;;;;;;1.77;0.90;;;;;;;20.70;37.92;101791.19;5053258;28;20468;-59
2022/04/02 11:28:14;;;;;;;1.88;1.00;;;;;;;20.69;37.82;101797.44;5053086;28;20075;-59
2022/04/02 11:30:48;;;;;;;2.15;0.90;;;;;;;20.67;37.76;101796.72;5053832;28;20037;-57
2022/04/02 11:33:14;;;;;;;3.10;1.10;;;;;;;20.65;37.72;101802.97;5053063;28;20082;-58
2022/04/02 11:35:48;;;;;;;3.70;1.20;;;;;;;20.67;38.14;101802.03;5053413;28;20029;-56
2022/04/02 11:38:14;;;;;;;;;;;;;;;20.68;38.03;101795.75;5053906;28;20048;-56